Time;durP1;ratioP1;P1;durP2;ratioP2;P2;SDS_P1;SDS_P2;PMS_P1;PMS_P2;Temp;Humidity;BMP_temperature;BMP_pressure;BME280_temperature;BME280_humidity;BME280_pressure;Samples;Min_cycle;Max_cycle;Signal;HPM_P1;HPM_P2
2022/06/17 00:00:50;;;;;;;5.60;2.10;;;23.70;86.30;;;;;;5032309;28;20048;-72
2022/06/17 00:03:55;;;;;;;5.68;2.00;;;23.70;86.40;;;;;;5031901;28;20052;-71
2022/06/17 00:07:15;;;;;;;3.63;1.95;;;23.70;86.80;;;;;;5031660;28;20382;-71
2022/06/17 00:10:25;;;;;;;3.50;2.15;;;23.60;86.90;;;;;;5031766;28;20392;-72
2022/06/17 00:13:29;;;;;;;5.35;2.17;;;23.50;87.30;;;;;;5032201;28;20067;-72
2022/06/17 00:16:32;;;;;;;5.80;2.55;;;23.50;87.80;;;;;;5030477;28;20041;-72
2022/06/17 00:19:36;;;;;;;5.53;2.20;;;23.40;88.40;;;;;;5031604;28;20087;-72
2022/06/17 00:22:42;;;;;;;6.32;2.30;;;23.30;88.60;;;;;;5031604;28;20052;-71
2022/06/17 00:25:48;;;;;;;4.10;2.00;;;23.30;88.90;;;;;;5031535;28;20057;-72
2022/06/17 00:28:52;;;;;;;4.50;1.88;;;23.20;89.50;;;;;;5031619;28;20503;-72
2022/06/17 00:31:58;;;;;;;7.35;2.50;;;23.10;89.70;;;;;;5031078;28;20384;-72
2022/06/17 00:35:01;;;;;;;6.78;2.25;;;23.10;90.20;;;;;;5031905;28;20048;-71
2022/06/17 00:38:11;;;;;;;7.25;2.15;;;23.00;90.40;;;;;;5030555;28;20036;-72
2022/06/17 00:41:36;;;;;;;6.30;2.40;;;23.00;90.40;;;;;;5030463;28;20052;-72
2022/06/17 00:44:54;;;;;;;6.95;2.30;;;23.00;90.50;;;;;;5030964;28;20048;-71
2022/06/17 00:48:16;;;;;;;9.20;2.75;;;23.00;90.70;;;;;;5030653;28;20060;-71
2022/06/17 00:51:25;;;;;;;6.05;2.63;;;23.00;90.70;;;;;;5030925;28;20049;-71
2022/06/17 00:54:59;;;;;;;3.92;1.92;;;23.00;90.70;;;;;;5030992;28;20116;-70
2022/06/17 00:58:23;;;;;;;3.20;2.05;;;23.00;90.60;;;;;;5030323;28;20491;-71
2022/06/17 01:01:32;;;;;;;6.22;2.22;;;23.00;90.60;;;;;;5029766;28;20041;-72
2022/06/17 01:04:45;;;;;;;3.50;2.30;;;23.00;90.60;;;;;;5029746;28;20044;-71
2022/06/17 01:08:01;;;;;;;5.10;2.10;;;23.00;90.60;;;;;;5029612;28;20404;-72
2022/06/17 01:11:07;;;;;;;7.25;2.35;;;23.00;90.50;;;;;;5029526;28;20052;-72
2022/06/17 01:14:16;;;;;;;3.47;2.00;;;23.00;90.70;;;;;;5029502;28;20049;-72
2022/06/17 01:17:22;;;;;;;4.53;2.25;;;23.00;90.60;;;;;;5029319;28;20368;-72
2022/06/17 01:20:31;;;;;;;5.15;2.55;;;22.90;90.90;;;;;;5029821;28;20040;-72
2022/06/17 01:23:35;;;;;;;4.75;2.20;;;22.80;91.10;;;;;;5029644;28;20040;-72
2022/06/17 01:26:39;;;;;;;5.75;2.20;;;22.70;91.20;;;;;;5030170;28;20518;-72
2022/06/17 01:29:43;;;;;;;8.35;2.40;;;22.30;91.70;;;;;;5029297;28;20052;-72
2022/06/17 01:33:09;;;;;;;4.55;2.60;;;22.20;92.00;;;;;;5029558;28;20052;-72
2022/06/17 01:36:20;;;;;;;4.88;2.53;;;22.20;92.40;;;;;;5030176;28;20049;-72
2022/06/17 01:39:25;;;;;;;6.25;2.50;;;22.00;93.00;;;;;;5030389;28;20040;-72
2022/06/17 01:42:30;;;;;;;4.30;2.50;;;21.90;93.10;;;;;;5030424;28;20048;-72
2022/06/17 01:45:37;;;;;;;7.32;2.72;;;21.80;93.70;;;;;;5029644;28;20231;-72
2022/06/17 01:48:52;;;;;;;8.63;2.95;;;21.70;94.10;;;;;;5030015;28;20483;-72
2022/06/17 01:52:05;;;;;;;6.57;2.70;;;21.50;94.50;;;;;;5029152;28;20045;-72
2022/06/17 01:55:24;;;;;;;9.15;3.10;;;21.40;95.10;;;;;;5029386;28;20056;-72
2022/06/17 01:58:31;;;;;;;4.45;2.70;;;21.40;95.70;;;;;;5028998;28;20040;-72
2022/06/17 02:01:38;;;;;;;13.57;2.72;;;21.40;95.70;;;;;;5028761;28;20404;-72
2022/06/17 02:04:48;;;;;;;4.20;2.53;;;21.30;95.80;;;;;;5028813;28;20049;-72
2022/06/17 02:07:57;;;;;;;4.70;2.75;;;21.30;95.80;;;;;;5028430;28;20048;-72
2022/06/17 02:11:06;;;;;;;7.53;3.38;;;21.30;96.00;;;;;;5028782;28;20477;-71
2022/06/17 02:14:13;;;;;;;5.22;2.83;;;21.40;96.20;;;;;;5029025;28;20388;-72
2022/06/17 02:17:41;;;;;;;4.57;2.85;;;21.30;96.40;;;;;;5028592;28;20392;-72
2022/06/17 02:21:04;;;;;;;6.70;3.03;;;21.30;96.10;;;;;;5029055;28;20048;-71
2022/06/17 02:24:10;;;;;;;7.60;3.35;;;21.40;96.10;;;;;;5029366;28;20064;-71
2022/06/17 02:27:15;;;;;;;5.72;2.95;;;21.40;96.20;;;;;;5028406;28;20052;-72
2022/06/17 02:30:19;;;;;;;4.88;3.20;;;21.40;96.20;;;;;;5029038;28;20044;-72
2022/06/17 02:33:23;;;;;;;7.97;3.17;;;21.50;96.40;;;;;;5029446;28;20041;-71
2022/06/17 02:36:51;;;;;;;4.22;3.42;;;21.60;96.60;;;;;;5028461;28;20041;-72
2022/06/17 02:39:59;;;;;;;4.93;3.20;;;21.50;96.70;;;;;;5029847;28;20045;-72
2022/06/17 02:43:11;;;;;;;4.82;3.28;;;21.50;97.00;;;;;;5029989;28;20499;-71
2022/06/17 02:46:31;;;;;;;5.90;3.53;;;21.40;97.20;;;;;;5028281;28;20320;-71
2022/06/17 02:49:39;;;;;;;6.88;2.80;;;21.30;97.20;;;;;;5028810;28;20057;-71
2022/06/17 02:52:44;;;;;;;5.88;3.35;;;21.20;97.50;;;;;;5028287;28;20040;-71
2022/06/17 02:55:48;;;;;;;4.43;3.20;;;21.10;97.70;;;;;;5029799;28;20048;-71
2022/06/17 02:59:21;;;;;;;6.40;3.15;;;21.00;98.20;;;;;;5028743;28;20052;-71
2022/06/17 03:02:38;;;;;;;7.65;3.45;;;20.80;99.10;;;;;;5032457;28;20056;-71
2022/06/17 03:05:44;;;;;;;4.85;3.38;;;20.70;99.90;;;;;;5033469;28;20044;-71
2022/06/17 03:08:52;;;;;;;9.43;4.10;;;20.50;99.90;;;;;;5032615;28;20048;-71
2022/06/17 03:12:12;;;;;;;6.88;4.05;;;20.30;99.90;;;;;;5031726;28;20041;-71
2022/06/17 03:15:19;;;;;;;6.13;3.90;;;20.20;99.90;;;;;;5031951;28;20320;-71
2022/06/17 03:18:26;;;;;;;6.38;3.42;;;20.00;99.90;;;;;;5031705;28;20044;-71
2022/06/17 03:21:30;;;;;;;6.78;3.75;;;19.80;99.90;;;;;;5031662;28;20044;-71
2022/06/17 03:25:01;;;;;;;8.48;3.80;;;19.70;99.90;;;;;;5031961;28;20061;-71
2022/06/17 03:28:13;;;;;;;13.80;4.30;;;19.70;99.90;;;;;;5017661;28;20056;-71
2022/06/17 03:31:31;;;;;;;8.23;4.20;;;19.70;99.90;;;;;;5031715;28;20060;-71
2022/06/17 03:34:42;;;;;;;9.20;3.92;;;19.80;99.90;;;;;;5032527;28;20045;-71
2022/06/17 03:38:03;;;;;;;7.50;4.22;;;19.80;99.90;;;;;;5031263;28;20041;-72
2022/06/17 03:41:36;;;;;;;15.70;3.90;;;19.70;99.90;;;;;;5031708;28;20407;-71
2022/06/17 03:44:47;;;;;;;10.63;3.85;;;19.80;99.90;;;;;;5031260;28;20040;-71
2022/06/17 03:47:55;;;;;;;6.70;3.55;;;19.80;99.90;;;;;;5031284;28;20053;-71
2022/06/17 03:50:59;;;;;;;5.30;3.72;;;19.80;99.90;;;;;;5032152;28;20044;-71
2022/06/17 03:54:14;;;;;;;7.47;3.05;;;19.90;99.90;;;;;;5031067;28;20492;-71
2022/06/17 03:57:19;;;;;;;5.30;3.65;;;20.00;99.90;;;;;;5030873;28;20044;-71
2022/06/17 04:00:36;;;;;;;6.70;3.65;;;20.20;99.90;;;;;;5031040;28;20040;-71
2022/06/17 04:03:45;;;;;;;7.82;3.92;;;20.40;99.90;;;;;;5031262;28;20120;-71
2022/06/17 04:06:52;;;;;;;10.65;3.80;;;20.50;99.90;;;;;;5030506;28;20044;-72
2022/06/17 04:10:01;;;;;;;7.10;3.58;;;20.60;99.90;;;;;;5031105;28;20044;-71
2022/06/17 04:13:06;;;;;;;5.50;3.28;;;20.80;99.90;;;;;;5030027;28;20396;-71
2022/06/17 04:16:44;;;;;;;5.85;3.17;;;20.80;99.90;;;;;;5034891;28;20045;-71
2022/06/17 04:19:58;;;;;;;8.10;3.33;;;21.00;99.90;;;;;;5031591;28;20044;-71
2022/06/17 04:23:24;;;;;;;8.70;3.38;;;21.20;99.90;;;;;;5031684;28;20052;-71
2022/06/17 04:26:35;;;;;;;7.25;3.17;;;21.20;99.90;;;;;;5031247;28;20068;-71
2022/06/17 04:29:53;;;;;;;9.10;3.20;;;21.40;99.90;;;;;;5030706;28;20503;-71
2022/06/17 04:33:04;;;;;;;4.13;3.13;;;22.10;99.90;;;;;;5030237;28;20055;-71
2022/06/17 04:36:13;;;;;;;9.75;3.20;;;22.80;99.90;;;;;;5030412;28;20044;-71
2022/06/17 04:39:31;;;;;;;5.13;2.88;;;23.50;99.90;;;;;;5030434;28;20045;-72
2022/06/17 04:42:55;;;;;;;8.80;3.30;;;24.20;99.90;;;;;;5031113;28;20508;-71
2022/06/17 04:46:09;;;;;;;8.18;2.60;;;25.10;99.90;;;;;;5030264;28;20044;-71
2022/06/17 04:49:20;;;;;;;12.45;3.30;;;26.00;98.10;;;;;;5030462;28;20040;-72
2022/06/17 04:52:29;;;;;;;12.57;4.03;;;26.60;97.40;;;;;;5029875;28;20503;-72
2022/06/17 04:55:45;;;;;;;15.23;5.32;;;27.30;95.70;;;;;;5030524;28;20040;-71
2022/06/17 04:59:24;;;;;;;15.32;4.07;;;28.00;95.20;;;;;;5030247;28;20037;-72
2022/06/17 05:02:30;;;;;;;6.50;2.63;;;28.40;94.60;;;;;;5029830;28;20396;-72
2022/06/17 05:05:56;;;;;;;4.38;2.50;;;28.50;92.30;;;;;;5030028;28;20052;-72
2022/06/17 05:09:20;;;;;;;7.22;3.10;;;28.90;91.80;;;;;;5031544;28;20045;-71
2022/06/17 05:12:31;;;;;;;9.80;3.10;;;29.10;92.40;;;;;;5031208;28;20056;-71
2022/06/17 05:15:37;;;;;;;8.65;3.22;;;28.70;93.50;;;;;;5029717;28;20040;-71
2022/06/17 05:18:42;;;;;;;14.82;3.33;;;29.10;93.70;;;;;;5029874;28;20060;-72
2022/06/17 05:21:52;;;;;;;7.90;3.13;;;29.60;93.40;;;;;;5029686;28;20498;-72
2022/06/17 05:25:12;;;;;;;9.52;2.80;;;29.80;92.60;;;;;;5029487;28;20044;-71
2022/06/17 05:28:18;;;;;;;7.95;2.67;;;29.90;92.30;;;;;;5029199;28;20041;-71
2022/06/17 05:31:26;;;;;;;5.20;3.17;;;29.50;92.70;;;;;;5029293;28;20044;-71
2022/06/17 05:34:35;;;;;;;8.68;3.05;;;27.80;93.80;;;;;;5029157;28;20044;-71
2022/06/17 05:37:39;;;;;;;12.00;3.30;;;27.20;95.00;;;;;;5029299;28;20040;-71
2022/06/17 05:40:46;;;;;;;6.47;3.13;;;28.00;94.30;;;;;;5029403;28;20049;-71
2022/06/17 05:43:52;;;;;;;8.48;2.90;;;28.30;94.00;;;;;;5029606;28;20045;-72
2022/06/17 05:47:05;;;;;;;7.53;3.00;;;28.90;93.80;;;;;;5029239;28;20140;-72
2022/06/17 05:50:16;;;;;;;5.00;3.08;;;29.50;92.50;;;;;;5029469;28;20514;-72
2022/06/17 05:53:30;;;;;;;6.88;2.90;;;30.00;91.80;;;;;;5028891;28;20502;-71
2022/06/17 05:57:00;;;;;;;5.95;2.70;;;30.50;91.00;;;;;;5023246;28;20052;-72
2022/06/17 06:00:06;;;;;;;11.25;3.22;;;30.60;90.40;;;;;;5024499;28;20040;-71
2022/06/17 06:03:19;;;;;;;7.68;2.70;;;29.30;91.80;;;;;;5029347;28;20052;-72
2022/06/17 06:06:23;;;;;;;6.78;3.25;;;27.60;93.00;;;;;;5028668;28;20060;-71
2022/06/17 06:09:32;;;;;;;11.50;3.45;;;27.40;93.50;;;;;;5029696;28;20484;-72
2022/06/17 06:12:56;;;;;;;7.38;2.55;;;27.20;94.20;;;;;;5029198;28;20503;-72
2022/06/17 06:16:05;;;;;;;5.15;2.55;;;27.20;93.90;;;;;;5027730;28;20068;-70
2022/06/17 06:19:11;;;;;;;6.78;2.97;;;27.40;93.40;;;;;;5028298;28;20052;-71
2022/06/17 06:22:15;;;;;;;8.25;2.20;;;28.20;93.10;;;;;;5028878;28;20048;-72
2022/06/17 06:25:19;;;;;;;4.95;2.50;;;29.40;91.70;;;;;;5028726;28;20523;-72
2022/06/17 06:28:25;;;;;;;7.40;2.47;;;29.90;90.90;;;;;;5015256;28;20056;-72
2022/06/17 06:31:58;;;;;;;4.85;2.13;;;30.40;90.50;;;;;;5029649;28;20057;-72
2022/06/17 06:35:27;;;;;;;4.00;2.70;;;29.50;90.70;;;;;;5009949;28;20522;-72
2022/06/17 06:38:30;;;;;;;3.78;2.47;;;30.40;90.90;;;;;;5013529;28;20049;-71
2022/06/17 06:41:35;;;;;;;6.30;2.10;;;29.70;90.30;;;;;;5029575;28;20372;-71
2022/06/17 06:44:41;;;;;;;6.80;2.42;;;29.80;90.70;;;;;;5031884;28;20049;-72
2022/06/17 06:47:57;;;;;;;4.97;2.13;;;30.80;89.70;;;;;;5021063;28;20052;-72
2022/06/17 06:51:02;;;;;;;5.90;2.35;;;29.50;89.60;;;;;;5032730;28;20064;-71
2022/06/17 06:54:06;;;;;;;9.02;2.55;;;29.40;90.30;;;;;;5032795;28;20053;-72
2022/06/17 06:57:10;;;;;;;3.65;2.10;;;29.90;89.50;;;;;;5030481;28;20064;-72
2022/06/17 07:00:29;;;;;;;4.82;2.17;;;30.70;88.30;;;;;;5032056;28;20044;-73
2022/06/17 07:03:33;;;;;;;5.10;2.03;;;30.80;86.80;;;;;;5031748;28;20052;-72
2022/06/17 07:06:37;;;;;;;7.95;1.98;;;31.30;87.70;;;;;;5031475;28;20041;-72
2022/06/17 07:09:42;;;;;;;8.57;2.53;;;32.00;85.00;;;;;;5031336;28;20041;-72
2022/06/17 07:12:46;;;;;;;5.97;2.40;;;31.70;85.50;;;;;;5032647;28;20087;-72
2022/06/17 07:15:53;;;;;;;4.28;2.33;;;32.00;84.20;;;;;;5033327;28;20036;-72
2022/06/17 07:18:58;;;;;;;4.25;2.08;;;32.60;83.50;;;;;;5016036;28;20044;-72
2022/06/17 07:22:02;;;;;;;6.38;2.33;;;31.50;84.20;;;;;;5033317;28;20053;-72
2022/06/17 07:25:06;;;;;;;7.07;2.63;;;30.60;86.90;;;;;;5033558;28;20052;-70
2022/06/17 07:28:16;;;;;;;5.15;2.70;;;29.40;89.00;;;;;;5023315;28;20052;-70
2022/06/17 07:31:22;;;;;;;10.82;2.88;;;29.70;88.90;;;;;;5032782;28;20392;-70
2022/06/17 07:34:27;;;;;;;5.05;3.05;;;29.80;88.90;;;;;;5033294;28;20048;-72
2022/06/17 07:40:53;;;;;;;5.03;2.47;;;30.40;89.00;;;;;;5032727;28;20060;-72
2022/06/17 07:43:57;;;;;;;8.48;2.80;;;30.60;87.90;;;;;;5032108;28;20377;-73
2022/06/17 07:47:03;;;;;;;8.30;2.42;;;30.40;89.00;;;;;;5030364;28;20045;-73
2022/06/17 07:50:10;;;;;;;6.20;2.80;;;31.10;88.80;;;;;;5032318;28;20040;-72
2022/06/17 07:53:15;;;;;;;9.85;2.70;;;31.00;89.30;;;;;;5032338;28;20376;-71
2022/06/17 07:56:20;;;;;;;8.77;2.13;;;31.70;87.70;;;;;;5030981;28;20752;-72
2022/06/17 07:59:24;;;;;;;5.38;2.25;;;33.60;85.90;;;;;;5031356;28;20044;-72
2022/06/17 08:02:28;;;;;;;7.35;2.20;;;36.10;82.40;;;;;;5031482;28;20052;-72
2022/06/17 08:05:33;;;;;;;9.88;2.22;;;36.80;78.70;;;;;;5031202;28;20044;-72
2022/06/17 08:08:37;;;;;;;5.00;2.40;;;37.60;78.30;;;;;;5030977;28;20048;-73
2022/06/17 08:11:41;;;;;;;9.07;2.75;;;35.50;78.10;;;;;;5030133;28;20056;-72
2022/06/17 08:14:46;;;;;;;8.07;2.88;;;34.60;79.10;;;;;;5031315;28;20384;-72
2022/06/17 08:17:50;;;;;;;9.35;2.30;;;33.80;80.90;;;;;;5030367;28;20491;-71
2022/06/17 08:20:55;;;;;;;5.57;2.45;;;33.90;79.50;;;;;;5031108;28;20036;-72
2022/06/17 08:23:58;;;;;;;7.05;2.35;;;34.20;77.90;;;;;;5030246;28;20052;-72
2022/06/17 08:27:03;;;;;;;13.45;2.50;;;35.60;79.00;;;;;;5030702;28;20060;-71
2022/06/17 08:30:08;;;;;;;4.00;2.08;;;37.50;75.60;;;;;;5031531;28;20072;-71
2022/06/17 08:33:12;;;;;;;5.55;2.15;;;36.40;75.60;;;;;;4999782;28;20056;-71
2022/06/17 08:36:23;;;;;;;4.70;2.20;;;35.50;73.70;;;;;;5029670;28;20040;-72
2022/06/17 08:39:29;;;;;;;3.40;2.10;;;35.90;74.00;;;;;;5031778;28;20048;-71
2022/06/17 08:42:53;;;;;;;7.63;2.10;;;37.10;74.00;;;;;;5031886;28;20052;-71
2022/06/17 08:46:07;;;;;;;5.88;1.98;;;38.20;72.40;;;;;;5031634;28;20037;-72
2022/06/17 08:49:23;;;;;;;5.88;2.20;;;38.30;71.80;;;;;;5030567;28;20055;-71
2022/06/17 08:52:56;;;;;;;6.28;1.80;;;39.70;70.50;;;;;;5030118;28;20044;-72
2022/06/17 08:56:05;;;;;;;4.13;1.80;;;41.20;68.70;;;;;;5014932;28;20048;-70
2022/06/17 08:59:23;;;;;;;4.78;1.95;;;41.50;68.10;;;;;;5025599;28;20036;-70
2022/06/17 09:02:46;;;;;;;4.45;1.67;;;43.20;65.60;;;;;;5029950;28;20048;-71
2022/06/17 09:06:27;;;;;;;6.13;1.73;;;44.50;64.20;;;;;;5031028;28;20060;-71
2022/06/17 09:10:00;;;;;;;6.32;1.80;;;45.30;62.70;;;;;;5026768;28;20037;-69
2022/06/17 09:13:07;;;;;;;5.55;1.50;;;42.20;62.40;;;;;;5031141;28;20056;-71
2022/06/17 09:16:31;;;;;;;4.13;1.60;;;43.70;63.40;;;;;;5029070;28;20035;-70
2022/06/17 09:19:40;;;;;;;2.92;1.60;;;45.60;62.70;;;;;;5025665;28;20048;-69
2022/06/17 09:22:53;;;;;;;5.45;1.70;;;47.30;60.50;;;;;;5028794;28;20044;-70
2022/06/17 09:25:59;;;;;;;5.60;1.77;;;47.70;59.70;;;;;;5025860;28;20487;-72
2022/06/17 09:29:16;;;;;;;5.78;2.08;;;44.50;60.30;;;;;;5026609;28;20057;-71
2022/06/17 09:32:26;;;;;;;4.78;1.83;;;46.00;60.10;;;;;;5021647;28;20053;-70
2022/06/17 09:35:39;;;;;;;5.57;1.70;;;46.70;59.00;;;;;;5027202;28;20046;-69
2022/06/17 09:38:48;;;;;;;3.78;2.08;;;44.90;58.90;;;;;;5024959;28;20392;-70
2022/06/17 09:42:06;;;;;;;3.70;1.60;;;41.90;61.90;;;;;;5024884;28;20036;-69
2022/06/17 09:45:17;;;;;;;4.38;2.13;;;43.90;61.00;;;;;;5024503;28;20044;-70
2022/06/17 09:48:42;;;;;;;11.43;1.95;;;45.30;60.30;;;;;;5023718;28;20056;-70
2022/06/17 09:52:06;;;;;;;6.65;1.85;;;46.00;59.90;;;;;;5026078;28;20044;-70
2022/06/17 09:55:31;;;;;;;2.92;1.60;;;44.70;59.50;;;;;;5038206;28;20052;-70
2022/06/17 09:58:45;;;;;;;4.65;1.90;;;46.90;60.20;;;;;;5028469;28;20052;-70
2022/06/17 10:01:52;;;;;;;9.85;2.20;;;45.50;59.30;;;;;;5023306;28;20396;-69
2022/06/17 10:04:58;;;;;;;4.45;1.80;;;44.20;59.00;;;;;;5023088;28;20033;-70
2022/06/17 10:08:20;;;;;;;4.75;1.60;;;45.00;60.60;;;;;;5025022;28;20028;-70
2022/06/17 10:12:06;;;;;;;4.65;1.67;;;45.50;60.10;;;;;;5026168;28;20053;-71
2022/06/17 10:15:10;;;;;;;6.72;1.75;;;45.00;59.90;;;;;;5037221;28;20423;-69
2022/06/17 10:18:32;;;;;;;6.55;1.90;;;40.90;60.40;;;;;;5034508;28;20060;-69
2022/06/17 10:22:20;;;;;;;6.57;2.97;;;43.60;60.50;;;;;;5027071;28;20044;-70
2022/06/17 10:25:55;;;;;;;5.05;1.80;;;41.30;62.30;;;;;;5031449;28;20044;-70
2022/06/17 10:29:21;;;;;;;4.45;1.95;;;41.70;62.10;;;;;;5030579;28;20040;-70
2022/06/17 10:32:27;;;;;;;5.68;2.28;;;44.70;60.00;;;;;;5030544;28;20053;-70
2022/06/17 10:35:34;;;;;;;6.43;2.20;;;42.80;61.60;;;;;;5029643;28;20040;-70
2022/06/17 10:38:44;;;;;;;9.38;2.35;;;39.70;61.70;;;;;;5024060;28;20040;-70
2022/06/17 10:41:48;;;;;;;5.35;2.30;;;41.70;62.90;;;;;;5029857;28;20387;-70
2022/06/17 10:44:59;;;;;;;5.68;2.63;;;40.70;63.10;;;;;;5029099;28;20040;-70
2022/06/17 10:48:05;;;;;;;6.93;2.63;;;43.20;62.20;;;;;;5029230;28;20129;-70
2022/06/17 10:51:11;;;;;;;7.93;2.75;;;41.10;61.50;;;;;;5018367;28;20048;-69
2022/06/17 10:54:28;;;;;;;4.95;2.30;;;42.70;62.50;;;;;;5028611;28;20049;-70
2022/06/17 10:57:37;;;;;;;5.47;2.20;;;42.90;61.30;;;;;;5032705;28;20387;-70
2022/06/17 11:00:53;;;;;;;6.38;2.20;;;44.50;60.90;;;;;;5024159;28;20049;-70
2022/06/17 11:04:15;;;;;;;7.60;2.50;;;45.60;59.90;;;;;;5032175;28;20048;-71
2022/06/17 11:07:35;;;;;;;4.65;2.40;;;45.40;59.20;;;;;;5032975;28;20040;-70
2022/06/17 11:10:39;;;;;;;6.93;2.90;;;44.90;59.10;;;;;;5044881;28;20419;-69
2022/06/17 11:13:45;;;;;;;3.60;2.45;;;41.90;60.40;;;;;;5035752;28;20052;-69
2022/06/17 11:16:50;;;;;;;7.13;2.75;;;40.30;62.70;;;;;;5024853;28;20040;-70
2022/06/17 11:20:16;;;;;;;7.40;3.28;;;40.10;63.00;;;;;;5027788;28;20041;-70
2022/06/17 11:23:31;;;;;;;8.15;3.15;;;39.60;64.30;;;;;;5026535;28;20056;-70
2022/06/17 11:26:35;;;;;;;7.03;2.85;;;39.10;66.40;;;;;;5023663;28;20040;-69
2022/06/17 11:29:44;;;;;;;7.93;3.22;;;38.90;66.50;;;;;;5025790;28;20048;-69
2022/06/17 11:32:48;;;;;;;4.25;3.00;;;38.70;66.20;;;;;;5030375;28;20104;-69
2022/06/17 11:36:01;;;;;;;9.32;3.13;;;38.80;66.90;;;;;;5030524;28;20044;-70
2022/06/17 11:39:31;;;;;;;6.85;3.03;;;39.70;66.10;;;;;;5030489;28;20044;-71
2022/06/17 11:42:48;;;;;;;8.57;3.17;;;41.30;64.50;;;;;;5022487;28;20041;-70
2022/06/17 11:45:53;;;;;;;5.68;2.75;;;42.50;63.50;;;;;;5030173;28;20076;-70
2022/06/17 11:49:05;;;;;;;7.57;3.00;;;43.30;63.50;;;;;;5031877;28;20072;-70
2022/06/17 11:52:10;;;;;;;8.00;2.97;;;42.80;63.30;;;;;;5027587;28;20124;-70
2022/06/17 11:55:15;;;;;;;10.02;3.35;;;42.20;64.10;;;;;;5022558;28;20052;-69
2022/06/17 11:58:20;;;;;;;5.85;3.45;;;41.70;64.70;;;;;;5028788;28;20048;-69
2022/06/17 12:01:24;;;;;;;4.75;2.92;;;41.40;65.30;;;;;;5028189;28;20056;-70
2022/06/17 12:04:48;;;;;;;5.85;3.05;;;41.10;66.80;;;;;;5020486;28;20049;-70
2022/06/17 12:08:03;;;;;;;4.72;3.17;;;40.70;68.00;;;;;;5028785;28;20045;-70
2022/06/17 12:11:14;;;;;;;6.97;3.80;;;40.60;69.10;;;;;;5021581;28;21257;-69
2022/06/17 12:14:39;;;;;;;9.90;4.18;;;41.50;68.10;;;;;;5029054;28;20048;-70
2022/06/17 12:17:45;;;;;;;9.45;4.43;;;42.50;67.90;;;;;;5017176;28;20044;-70
2022/06/17 12:21:07;;;;;;;8.23;4.22;;;43.20;67.70;;;;;;5031028;28;20056;-70
2022/06/17 12:24:39;;;;;;;8.98;4.82;;;43.10;66.70;;;;;;5031052;28;20044;-70
2022/06/17 12:27:58;;;;;;;8.52;4.18;;;43.00;66.40;;;;;;5024610;28;20048;-70
2022/06/17 12:31:08;;;;;;;8.13;4.35;;;42.90;68.00;;;;;;5031143;28;20032;-70
2022/06/17 12:34:30;;;;;;;9.73;5.25;;;41.70;66.90;;;;;;5029877;28;20041;-71
2022/06/17 12:37:46;;;;;;;10.70;4.63;;;40.70;67.70;;;;;;5017648;28;20049;-70
2022/06/17 12:41:03;;;;;;;8.00;5.30;;;39.70;68.10;;;;;;5030434;28;20053;-70
2022/06/17 12:44:38;;;;;;;12.23;4.70;;;39.10;69.30;;;;;;5031208;28;20531;-70
2022/06/17 12:48:02;;;;;;;9.98;5.03;;;38.70;70.70;;;;;;5025819;28;20056;-71
2022/06/17 12:55:17;;;;;;;10.52;4.95;;;38.00;72.70;;;;;;5011490;28;20523;-69
2022/06/17 12:58:46;;;;;;;9.32;5.65;;;37.30;72.70;;;;;;5012619;28;20503;-71
2022/06/17 13:02:10;;;;;;;6.78;5.03;;;36.80;75.40;;;;;;5021467;28;20044;-72
2022/06/17 13:05:34;;;;;;;12.52;6.60;;;36.00;78.30;;;;;;5024611;28;20060;-72
2022/06/17 13:08:58;;;;;;;19.95;6.10;;;35.20;78.80;;;;;;5025180;28;20351;-72
2022/06/17 13:12:32;;;;;;;8.23;5.60;;;35.10;78.90;;;;;;5018682;28;20068;-72
2022/06/17 13:15:47;;;;;;;7.40;5.75;;;35.70;77.20;;;;;;5029972;28;20044;-73
2022/06/17 13:19:00;;;;;;;9.43;5.13;;;36.70;76.20;;;;;;5022589;28;20048;-72
2022/06/17 13:22:16;;;;;;;7.95;5.22;;;37.10;74.90;;;;;;5028926;28;20241;-72
2022/06/17 13:25:32;;;;;;;8.10;4.93;;;37.20;73.40;;;;;;5025799;28;20040;-71
2022/06/17 13:28:47;;;;;;;6.13;5.03;;;37.30;72.80;;;;;;5023622;28;20499;-73
2022/06/17 13:32:01;;;;;;;8.35;4.82;;;37.30;71.80;;;;;;5019162;28;20060;-71
2022/06/17 13:35:32;;;;;;;8.27;4.75;;;37.70;70.30;;;;;;5021364;28;20037;-73
2022/06/17 13:39:00;;;;;;;7.07;4.00;;;38.00;70.20;;;;;;5023548;28;20048;-72
2022/06/17 13:42:09;;;;;;;7.07;4.88;;;38.30;71.50;;;;;;5026044;28;20044;-72
2022/06/17 13:45:28;;;;;;;9.90;4.87;;;38.50;71.50;;;;;;5024293;28;20494;-73
2022/06/17 13:48:54;;;;;;;8.18;4.90;;;38.60;71.80;;;;;;5023735;28;20053;-71
2022/06/17 13:52:27;;;;;;;10.32;5.45;;;38.60;72.40;;;;;;5019662;28;20056;-72
2022/06/17 13:55:34;;;;;;;;;;;38.50;72.80;;;;;;5021435;28;20045;-72
2022/06/17 13:59:04;;;;;;;10.63;5.53;;;38.50;72.50;;;;;;5023183;28;19913;-72
2022/06/17 14:02:09;;;;;;;;;;;38.10;73.50;;;;;;5028547;28;20044;-72
2022/06/17 14:05:42;;;;;;;10.15;5.90;;;38.10;74.70;;;;;;5017844;28;19910;-71
2022/06/17 14:08:57;;;;;;;16.63;5.80;;;38.10;74.80;;;;;;5023149;28;20083;-72
2022/06/17 14:12:02;;;;;;;12.10;5.85;;;38.30;75.00;;;;;;5028209;28;20045;-71
2022/06/17 14:15:11;;;;;;;7.72;5.72;;;38.10;73.10;;;;;;5025878;28;20049;-71
2022/06/17 14:18:27;;;;;;;11.10;5.65;;;38.00;71.90;;;;;;5026041;28;20044;-72
2022/06/17 14:21:36;;;;;;;21.98;5.55;;;37.90;71.60;;;;;;5020665;28;20381;-70
2022/06/17 14:24:43;;;;;;;8.57;5.53;;;37.70;70.50;;;;;;5027725;28;20136;-71
2022/06/17 14:27:59;;;;;;;10.52;5.40;;;37.80;70.30;;;;;;5028543;28;20044;-73
2022/06/17 14:31:22;;;;;;;13.75;5.20;;;38.00;69.00;;;;;;5026740;28;20057;-69
2022/06/17 14:34:46;;;;;;;11.57;4.82;;;38.10;68.40;;;;;;5023598;28;20040;-70
2022/06/17 14:38:03;;;;;;;8.35;4.78;;;38.10;68.60;;;;;;5019670;28;20037;-71
2022/06/17 14:45:30;;;;;;;6.50;3.90;;;38.00;65.30;;;;;;5028585;28;20515;-73
2022/06/17 14:48:40;;;;;;;12.07;4.60;;;37.90;63.70;;;;;;5022061;28;20048;-69
2022/06/17 14:51:45;;;;;;;6.33;4.60;;;38.10;64.50;;;;;;5021938;28;20048;-71
2022/06/17 14:55:02;;;;;;;11.38;4.20;;;38.10;65.80;;;;;;5026794;28;20044;-69
2022/06/17 14:58:14;;;;;;;14.05;4.40;;;38.00;64.10;;;;;;5028675;28;20041;-69
2022/06/17 15:01:44;;;;;;;9.93;4.65;;;37.80;64.60;;;;;;5023067;28;20044;-69
2022/06/17 15:04:55;;;;;;;19.45;4.93;;;37.80;65.60;;;;;;5027967;28;20041;-70
2022/06/17 15:08:25;;;;;;;12.63;4.72;;;37.60;66.00;;;;;;5025060;28;20048;-71
2022/06/17 15:11:31;;;;;;;4.65;3.95;;;37.60;67.10;;;;;;5019624;28;20041;-70
2022/06/17 15:14:45;;;;;;;8.38;4.47;;;37.40;64.10;;;;;;5030950;28;20109;-70
2022/06/17 15:18:13;;;;;;;10.85;4.30;;;37.30;63.80;;;;;;5030055;28;20044;-69
2022/06/17 15:21:32;;;;;;;8.75;4.28;;;37.30;62.90;;;;;;5031425;28;20377;-71
2022/06/17 15:25:01;;;;;;;7.45;4.43;;;37.20;64.90;;;;;;5032590;28;20415;-70
2022/06/17 15:28:14;;;;;;;9.75;4.75;;;36.90;65.80;;;;;;5025480;28;20053;-71
2022/06/17 15:31:26;;;;;;;7.93;4.75;;;36.90;66.40;;;;;;5029752;28;20053;-69
2022/06/17 15:34:34;;;;;;;8.40;4.85;;;36.80;67.70;;;;;;5026017;28;20048;-69
2022/06/17 15:37:41;;;;;;;10.27;5.80;;;36.90;66.30;;;;;;5022749;28;20503;-72
2022/06/17 15:40:46;;;;;;;12.90;6.00;;;34.10;79.10;;;;;;5027787;28;20045;-70
2022/06/17 15:44:16;;;;;;;8.55;5.68;;;34.30;81.00;;;;;;5030045;28;20052;-70
2022/06/17 15:47:20;;;;;;;10.60;6.20;;;33.90;82.50;;;;;;5016317;28;20045;-70
2022/06/17 15:50:27;;;;;;;16.00;7.18;;;31.90;85.50;;;;;;5023018;28;20041;-70
2022/06/17 15:53:36;;;;;;;9.88;6.25;;;31.80;86.80;;;;;;5028751;28;20127;-70
2022/06/17 15:56:47;;;;;;;10.30;6.28;;;31.80;86.90;;;;;;5025560;28;20040;-70
2022/06/17 15:59:51;;;;;;;11.27;6.30;;;31.70;87.10;;;;;;5018017;28;20044;-70
2022/06/17 16:03:04;;;;;;;7.53;5.05;;;32.10;86.60;;;;;;5021513;28;20049;-70
2022/06/17 16:06:20;;;;;;;11.38;5.88;;;32.30;84.60;;;;;;5031775;28;20048;-70
2022/06/17 16:09:32;;;;;;;9.98;5.55;;;32.00;83.20;;;;;;5031059;28;20040;-70
2022/06/17 16:12:46;;;;;;;7.43;5.45;;;31.70;84.50;;;;;;5031004;28;20070;-69
2022/06/17 16:16:25;;;;;;;5.90;5.25;;;31.90;82.60;;;;;;5031800;28;20053;-69
2022/06/17 16:19:30;;;;;;;7.60;4.93;;;31.80;83.20;;;;;;5031689;28;20396;-70
2022/06/17 16:22:37;;;;;;;11.68;5.30;;;31.80;83.30;;;;;;5031747;28;20116;-70
2022/06/17 16:25:40;;;;;;;11.95;5.60;;;31.60;83.90;;;;;;5031693;28;20045;-69
2022/06/17 16:28:44;;;;;;;8.05;5.00;;;31.70;83.80;;;;;;5031436;28;20428;-69
2022/06/17 16:32:17;;;;;;;7.90;5.43;;;30.90;84.10;;;;;;5030779;28;20400;-69
2022/06/17 16:35:25;;;;;;;6.88;5.00;;;30.90;85.30;;;;;;5031386;28;20060;-69
2022/06/17 16:38:42;;;;;;;9.85;5.28;;;30.30;85.60;;;;;;5031059;28;20056;-69
2022/06/17 16:45:30;;;;;;;7.20;5.78;;;30.20;86.00;;;;;;5031117;28;20518;-70
2022/06/17 16:48:34;;;;;;;7.50;6.40;;;30.10;86.70;;;;;;5031137;28;20412;-71
2022/06/17 16:51:39;;;;;;;7.88;6.00;;;30.30;87.30;;;;;;5031076;28;20061;-71
2022/06/17 16:54:43;;;;;;;10.88;5.97;;;30.10;87.30;;;;;;5030795;28;20044;-71
2022/06/17 16:57:48;;;;;;;10.30;5.60;;;29.90;87.50;;;;;;5030634;28;20048;-71